Ternat, Belgium
Current Conditions -  °F | °C
As of 10:20 AM on Thursday 18 Dec 2014 (Local Time) from EBBR Reporting Station
Drizzle Drizzle  
Wind Chill: 54°   Ceiling: 800
Heat Index: 54°   Visibility: 2.1mi
Dew Point: 50°   Wind: 14mph
Humidity: 88%   Direction: 250°WSW
Pressure: 29.88"   Gusts: NA
Location:  50.87°N, 4.17°E
Report Text: EBBR 180920Z 25012KT 3500 -DZ FEW006 BKN008 12/10 Q1012 BECMG 25015G25KT
Loading
Personal Weather Stations






























Interactive Weather Map New forecast layout! Learn more

10-Day Weather Forecast

Advertisements
Track Severe Weather on mobile